Main page
METAR-TAF:

METAR-TAF

Airports :

Chita, Russia

Kadala Airport

latitude: 52-05N, longitude: 113-29E, elevation: 685 m

Current weather observation

The report was made 41 minutes ago, at 08:30 UTC
Wind 16 kt from the West/Northwest
Temperature 13°C
Humidity 24%
Pressure 1002 hPa
Visibility 10 km or more

METAR: UIAA 230830Z 30008MPS 9999 NSC 13/M07 Q1002 R29/70D NOSIG RMK QFE694/0925

Time: 18:11 (09:11 UTC)

Forecast

The report was made 1 hour and 11 minutes ago, at 08:00 UTC
Forecast valid from 23 at 09 UTC to 24 at 09 UTC
Wind 12 kt from the West/Northwest with gusts up to 25 kt
Visibility 10 km or more
Scattered clouds at a height of 4000 ft, Cumulonimbus.
Becoming
from 23 at 11 UTC to 23 at 13 UTC
Wind 6 kt from the Southwest
Temporary
from 24 at 02 UTC to 24 at 09 UTC
Wind 12 kt from the Northwest with gusts up to 25 kt

TAF: UIAA 230800Z 2309/2409 30006G13MPS 9999 SCT040CB BECMG 2311/2313 22003MPS TEMPO 2402/2409 32006G13MPS

Weather observations and forecasts of more than 4000 airports (METAR and TAF reports).

The available stations are represented by yellow and red dots on the map.

Hover mouse over dot to see the name of the station.

Then click to see weather observations and forecasts.

To change the map : click on the green buttons with a black cross to zoom in, on the green button with a dash to zoom out, or on the green arrows for adjacent maps.


METAR-TAF: